AAL122 KDFW-KPIT
Flight info
| Callsign | AAL122 |
|---|---|
| Flight time | 2h 12m |
| Altitude | 37000 |
| Route | ZACHH4 BSKAT LITTR OMDUE OLSIE DACOS VLADY JPU FEWGA7 |
| Aircraft | A321/M-SDE3FGHIRWY/LB1 |
Departure
| Time | 2026-05-07 12:40 |
|---|---|
| Airport | Dallas Fort Worth International Airport (KDFW) |
Arrival
| Time | 2026-05-07 14:52 |
|---|---|
| Airport | Pittsburgh International Airport (KPIT) |
| Time | Latitude | Longitude | Altitude | Speed | Heading |
|---|---|---|---|---|---|
| 2026-05-07 12:12 | 32.90743 | -97.03700 | 592 ft | 0 kts | 197° |
| 2026-05-07 12:25 | 32.90745 | -97.03699 | 592 ft | 1 kts | 198° |
| 2026-05-07 12:26 | 32.90755 | -97.03696 | 592 ft | 1 kts | 196° |
| 2026-05-07 12:26 | 32.90770 | -97.03693 | 592 ft | 2 kts | 172° |
| 2026-05-07 12:26 | 32.90785 | -97.03698 | 592 ft | 2 kts | 151° |
| 2026-05-07 12:26 | 32.90797 | -97.03709 | 592 ft | 2 kts | 129° |
| 2026-05-07 12:27 | 32.90804 | -97.03725 | 592 ft | 2 kts | 107° |
| 2026-05-07 12:27 | 32.90807 | -97.03738 | 592 ft | 0 kts | 92° |
| 2026-05-07 12:27 | 32.90806 | -97.03746 | 592 ft | 0 kts | 89° |
| 2026-05-07 12:29 | 32.90806 | -97.03745 | 592 ft | 0 kts | 89° |
| 2026-05-07 12:29 | 32.90806 | -97.03719 | 592 ft | 6 kts | 92° |
| 2026-05-07 12:30 | 32.90792 | -97.03646 | 591 ft | 11 kts | 116° |
| 2026-05-07 12:30 | 32.90743 | -97.03559 | 590 ft | 13 kts | 134° |
| 2026-05-07 12:30 | 32.90665 | -97.03481 | 589 ft | 15 kts | 142° |
| 2026-05-07 12:30 | 32.90572 | -97.03406 | 587 ft | 17 kts | 159° |
| 2026-05-07 12:31 | 32.90452 | -97.03401 | 586 ft | 17 kts | 180° |
| 2026-05-07 12:31 | 32.90339 | -97.03428 | 587 ft | 16 kts | 223° |
| 2026-05-07 12:31 | 32.90254 | -97.03497 | 588 ft | 15 kts | 208° |
| 2026-05-07 12:31 | 32.90155 | -97.03545 | 588 ft | 15 kts | 181° |
| 2026-05-07 12:32 | 32.90111 | -97.03445 | 586 ft | 15 kts | 97° |
| 2026-05-07 12:32 | 32.90095 | -97.03331 | 582 ft | 10 kts | 140° |
| 2026-05-07 12:32 | 32.90019 | -97.03312 | 581 ft | 12 kts | 185° |
| 2026-05-07 12:32 | 32.89922 | -97.03319 | 581 ft | 14 kts | 181° |
| 2026-05-07 12:33 | 32.89688 | -97.03318 | 579 ft | 18 kts | 180° |
| 2026-05-07 12:33 | 32.89550 | -97.03319 | 577 ft | 20 kts | 180° |
| 2026-05-07 12:33 | 32.89402 | -97.03319 | 576 ft | 21 kts | 180° |
| 2026-05-07 12:34 | 32.89254 | -97.03318 | 574 ft | 21 kts | 179° |
| 2026-05-07 12:34 | 32.89107 | -97.03320 | 574 ft | 21 kts | 185° |
| 2026-05-07 12:34 | 32.88961 | -97.03323 | 573 ft | 20 kts | 181° |
| 2026-05-07 12:34 | 32.88816 | -97.03321 | 572 ft | 20 kts | 180° |
| 2026-05-07 12:35 | 32.88670 | -97.03325 | 572 ft | 20 kts | 180° |
| 2026-05-07 12:35 | 32.88531 | -97.03330 | 571 ft | 17 kts | 202° |
| 2026-05-07 12:35 | 32.88503 | -97.03458 | 571 ft | 16 kts | 272° |
| 2026-05-07 12:35 | 32.88502 | -97.03597 | 571 ft | 16 kts | 266° |
| 2026-05-07 12:36 | 32.88502 | -97.03735 | 571 ft | 17 kts | 271° |
| 2026-05-07 12:36 | 32.88501 | -97.03890 | 571 ft | 19 kts | 271° |
| 2026-05-07 12:36 | 32.88501 | -97.04046 | 571 ft | 18 kts | 271° |
| 2026-05-07 12:36 | 32.88502 | -97.04198 | 572 ft | 17 kts | 270° |
| 2026-05-07 12:37 | 32.88503 | -97.04342 | 573 ft | 16 kts | 271° |
| 2026-05-07 12:37 | 32.88505 | -97.04482 | 575 ft | 16 kts | 271° |
| 2026-05-07 12:37 | 32.88505 | -97.04623 | 576 ft | 17 kts | 271° |
| 2026-05-07 12:37 | 32.88505 | -97.04759 | 577 ft | 16 kts | 270° |
| 2026-05-07 12:38 | 32.88506 | -97.04889 | 578 ft | 15 kts | 269° |
| 2026-05-07 12:38 | 32.88504 | -97.04969 | 579 ft | 2 kts | 269° |
| 2026-05-07 12:38 | 32.88504 | -97.04988 | 579 ft | 2 kts | 269° |
| 2026-05-07 12:38 | 32.88504 | -97.05019 | 579 ft | 5 kts | 273° |
| 2026-05-07 12:39 | 32.88519 | -97.05065 | 579 ft | 6 kts | 321° |
| 2026-05-07 12:39 | 32.88569 | -97.05087 | 580 ft | 8 kts | 355° |
| 2026-05-07 12:39 | 32.88582 | -97.05089 | 581 ft | 0 kts | 357° |
| 2026-05-07 12:39 | 32.88703 | -97.05089 | 583 ft | 51 kts | 0° |
| 2026-05-07 12:40 | 32.89319 | -97.05087 | 598 ft | 120 kts | 0° |
| 2026-05-07 12:40 | 32.90357 | -97.05081 | 658 ft | 170 kts | 1° |
| 2026-05-07 12:40 | 32.91574 | -97.05007 | 1227 ft | 177 kts | 9° |
| 2026-05-07 12:40 | 32.92755 | -97.04768 | 2118 ft | 170 kts | 12° |
| 2026-05-07 12:41 | 32.93884 | -97.04541 | 2753 ft | 168 kts | 11° |
| 2026-05-07 12:41 | 32.95084 | -97.04324 | 3066 ft | 183 kts | 10° |
| 2026-05-07 12:41 | 32.96421 | -97.04108 | 3392 ft | 199 kts | 9° |
| 2026-05-07 12:41 | 32.97884 | -97.03887 | 3645 ft | 220 kts | 8° |
| 2026-05-07 12:42 | 32.99471 | -97.03657 | 3996 ft | 237 kts | 7° |
| 2026-05-07 12:42 | 33.01173 | -97.03415 | 4454 ft | 250 kts | 6° |
| 2026-05-07 12:42 | 33.02919 | -97.03170 | 5116 ft | 256 kts | 6° |
| 2026-05-07 12:42 | 33.04729 | -97.02907 | 5807 ft | 261 kts | 7° |
| 2026-05-07 12:43 | 33.06443 | -97.02127 | 6434 ft | 273 kts | 34° |
| 2026-05-07 12:43 | 33.07677 | -97.00406 | 7070 ft | 285 kts | 61° |
| 2026-05-07 12:43 | 33.08153 | -96.98064 | 7702 ft | 296 kts | 84° |
| 2026-05-07 12:43 | 33.08264 | -96.95620 | 8340 ft | 303 kts | 86° |
| 2026-05-07 12:44 | 33.08218 | -96.93059 | 8968 ft | 311 kts | 94° |
| 2026-05-07 12:44 | 33.07938 | -96.90505 | 9570 ft | 318 kts | 99° |
| 2026-05-07 12:44 | 33.07564 | -96.87875 | 10152 ft | 325 kts | 100° |
| 2026-05-07 12:44 | 33.07171 | -96.85207 | 10650 ft | 336 kts | 100° |
| 2026-05-07 12:45 | 33.06757 | -96.82380 | 10964 ft | 353 kts | 100° |
| 2026-05-07 12:45 | 33.06336 | -96.79446 | 11297 ft | 368 kts | 100° |
| 2026-05-07 12:45 | 33.05906 | -96.76403 | 11841 ft | 376 kts | 100° |
| 2026-05-07 12:45 | 33.05472 | -96.73325 | 12416 ft | 381 kts | 100° |
| 2026-05-07 12:46 | 33.05031 | -96.70187 | 12973 ft | 387 kts | 100° |
| 2026-05-07 12:46 | 33.04588 | -96.67033 | 13553 ft | 392 kts | 100° |
| 2026-05-07 12:46 | 33.04133 | -96.63783 | 14129 ft | 397 kts | 101° |
| 2026-05-07 12:46 | 33.03677 | -96.60546 | 14705 ft | 400 kts | 101° |
| 2026-05-07 12:47 | 33.03217 | -96.57272 | 15273 ft | 404 kts | 101° |
| 2026-05-07 12:47 | 33.02750 | -96.53973 | 15811 ft | 409 kts | 101° |
| 2026-05-07 12:47 | 33.02272 | -96.50609 | 16354 ft | 413 kts | 102° |
| 2026-05-07 12:47 | 33.01799 | -96.47266 | 16882 ft | 417 kts | 102° |
| 2026-05-07 12:48 | 33.01311 | -96.43836 | 17415 ft | 420 kts | 102° |
| 2026-05-07 12:48 | 33.00827 | -96.40443 | 18037 ft | 420 kts | 102° |
| 2026-05-07 12:48 | 33.00338 | -96.37011 | 18587 ft | 422 kts | 102° |
| 2026-05-07 12:48 | 33.00166 | -96.33514 | 19030 ft | 430 kts | 86° |
| 2026-05-07 12:49 | 33.00790 | -96.30019 | 19470 ft | 433 kts | 68° |
| 2026-05-07 12:49 | 33.01941 | -96.26655 | 19946 ft | 435 kts | 63° |
| 2026-05-07 12:49 | 33.03178 | -96.23383 | 20372 ft | 439 kts | 63° |
| 2026-05-07 12:49 | 33.04433 | -96.20061 | 20801 ft | 443 kts | 63° |
| 2026-05-07 12:50 | 33.05677 | -96.16689 | 21248 ft | 447 kts | 64° |
| 2026-05-07 12:50 | 33.06914 | -96.13268 | 21684 ft | 450 kts | 64° |
| 2026-05-07 12:50 | 33.08136 | -96.09831 | 22120 ft | 453 kts | 64° |
| 2026-05-07 12:50 | 33.09363 | -96.06362 | 22540 ft | 457 kts | 64° |
| 2026-05-07 12:51 | 33.10596 | -96.02866 | 22951 ft | 460 kts | 64° |
| 2026-05-07 12:51 | 33.11832 | -95.99350 | 23326 ft | 464 kts | 64° |
| 2026-05-07 12:51 | 33.13087 | -95.95779 | 23681 ft | 469 kts | 64° |
| 2026-05-07 12:51 | 33.14365 | -95.92147 | 24031 ft | 473 kts | 65° |
| 2026-05-07 12:52 | 33.15638 | -95.88512 | 24400 ft | 477 kts | 65° |
| 2026-05-07 12:52 | 33.16917 | -95.84862 | 24788 ft | 481 kts | 65° |
| 2026-05-07 12:52 | 33.18210 | -95.81165 | 25151 ft | 485 kts | 65° |
| 2026-05-07 12:52 | 33.19513 | -95.77447 | 25497 ft | 489 kts | 65° |
| 2026-05-07 12:53 | 33.20816 | -95.73701 | 25867 ft | 493 kts | 65° |
| 2026-05-07 12:53 | 33.22144 | -95.69896 | 26221 ft | 496 kts | 65° |
| 2026-05-07 12:53 | 33.23449 | -95.66087 | 26574 ft | 500 kts | 65° |
| 2026-05-07 12:53 | 33.24769 | -95.62269 | 26916 ft | 503 kts | 65° |
| 2026-05-07 12:54 | 33.26120 | -95.58399 | 27228 ft | 507 kts | 65° |
| 2026-05-07 12:54 | 33.27477 | -95.54518 | 27550 ft | 511 kts | 65° |
| 2026-05-07 12:54 | 33.28841 | -95.50592 | 27879 ft | 515 kts | 66° |
| 2026-05-07 12:54 | 33.30205 | -95.46660 | 28178 ft | 519 kts | 66° |
| 2026-05-07 12:55 | 33.31581 | -95.42662 | 28486 ft | 522 kts | 65° |
| 2026-05-07 12:55 | 33.32970 | -95.38628 | 28812 ft | 525 kts | 66° |
| 2026-05-07 12:55 | 33.34354 | -95.34607 | 29113 ft | 528 kts | 66° |
| 2026-05-07 12:55 | 33.35757 | -95.30519 | 29381 ft | 532 kts | 66° |
| 2026-05-07 12:56 | 33.37163 | -95.26424 | 29655 ft | 535 kts | 67° |
| 2026-05-07 12:56 | 33.38569 | -95.22317 | 29934 ft | 538 kts | 66° |
| 2026-05-07 12:56 | 33.39979 | -95.18185 | 30233 ft | 540 kts | 66° |
| 2026-05-07 12:56 | 33.41392 | -95.14043 | 30511 ft | 542 kts | 66° |
| 2026-05-07 12:57 | 33.42833 | -95.09815 | 30786 ft | 545 kts | 66° |
| 2026-05-07 12:57 | 33.44247 | -95.05673 | 31049 ft | 547 kts | 66° |
| 2026-05-07 12:57 | 33.45691 | -95.01431 | 31322 ft | 549 kts | 66° |
| 2026-05-07 12:57 | 33.47144 | -94.97158 | 31590 ft | 551 kts | 66° |
| 2026-05-07 12:58 | 33.48577 | -94.92939 | 31850 ft | 553 kts | 66° |
| 2026-05-07 12:58 | 33.50019 | -94.88691 | 32088 ft | 556 kts | 66° |
| 2026-05-07 12:58 | 33.51472 | -94.84397 | 32357 ft | 557 kts | 66° |
| 2026-05-07 12:58 | 33.52937 | -94.80069 | 32706 ft | 557 kts | 66° |
| 2026-05-07 12:59 | 33.54388 | -94.75779 | 33031 ft | 557 kts | 66° |
| 2026-05-07 12:59 | 33.55831 | -94.71500 | 33355 ft | 557 kts | 66° |
| 2026-05-07 12:59 | 33.57264 | -94.67236 | 33698 ft | 557 kts | 66° |
| 2026-05-07 12:59 | 33.58709 | -94.62940 | 34026 ft | 556 kts | 66° |
| 2026-05-07 13:00 | 33.60148 | -94.58649 | 34357 ft | 556 kts | 66° |
| 2026-05-07 13:00 | 33.61580 | -94.54378 | 34678 ft | 556 kts | 66° |
| 2026-05-07 13:00 | 33.63038 | -94.50036 | 34990 ft | 556 kts | 65° |
| 2026-05-07 13:00 | 33.64468 | -94.45760 | 35305 ft | 555 kts | 65° |
| 2026-05-07 13:01 | 33.65894 | -94.41486 | 35566 ft | 556 kts | 66° |
| 2026-05-07 13:01 | 33.67323 | -94.37209 | 35804 ft | 557 kts | 66° |
| 2026-05-07 13:01 | 33.68767 | -94.32873 | 35979 ft | 559 kts | 66° |
| 2026-05-07 13:01 | 33.70193 | -94.28580 | 36139 ft | 559 kts | 65° |
| 2026-05-07 13:02 | 33.71788 | -94.24271 | 36307 ft | 559 kts | 60° |
| 2026-05-07 13:02 | 33.73588 | -94.20163 | 36467 ft | 557 kts | 57° |
| 2026-05-07 13:02 | 33.75503 | -94.16146 | 36619 ft | 558 kts | 55° |
| 2026-05-07 13:02 | 33.77469 | -94.12122 | 36752 ft | 559 kts | 55° |
| 2026-05-07 13:03 | 33.79423 | -94.08120 | 36894 ft | 560 kts | 55° |
| 2026-05-07 13:03 | 33.81383 | -94.04067 | 37043 ft | 561 kts | 55° |
| 2026-05-07 13:03 | 33.85290 | -93.95903 | 37094 ft | 562 kts | 55° |
| 2026-05-07 13:04 | 33.89145 | -93.87808 | 37094 ft | 563 kts | 55° |
| 2026-05-07 13:04 | 33.93026 | -93.79633 | 37097 ft | 564 kts | 55° |
| 2026-05-07 13:05 | 33.96886 | -93.71478 | 37095 ft | 564 kts | 55° |
| 2026-05-07 13:05 | 34.00783 | -93.63221 | 37095 ft | 564 kts | 55° |
| 2026-05-07 13:06 | 34.04640 | -93.55031 | 37099 ft | 564 kts | 54° |
| 2026-05-07 13:06 | 34.08482 | -93.46862 | 37096 ft | 564 kts | 54° |
| 2026-05-07 13:07 | 34.12355 | -93.38604 | 37104 ft | 564 kts | 55° |
| 2026-05-07 13:07 | 34.16196 | -93.30388 | 37096 ft | 564 kts | 56° |
| 2026-05-07 13:08 | 34.20032 | -93.22151 | 37094 ft | 564 kts | 56° |
| 2026-05-07 13:08 | 34.23879 | -93.13870 | 37107 ft | 564 kts | 55° |
| 2026-05-07 13:09 | 34.27717 | -93.05603 | 37103 ft | 564 kts | 56° |
| 2026-05-07 13:09 | 34.31522 | -92.97383 | 37102 ft | 564 kts | 56° |
| 2026-05-07 13:10 | 34.35367 | -92.89056 | 37106 ft | 565 kts | 56° |
| 2026-05-07 13:10 | 34.39169 | -92.80801 | 37100 ft | 565 kts | 56° |
| 2026-05-07 13:11 | 34.42982 | -92.72501 | 37094 ft | 565 kts | 56° |
| 2026-05-07 13:11 | 34.46777 | -92.64210 | 37103 ft | 564 kts | 55° |
| 2026-05-07 13:12 | 34.50590 | -92.55891 | 37107 ft | 566 kts | 56° |
| 2026-05-07 13:12 | 34.54388 | -92.47553 | 37103 ft | 565 kts | 55° |
| 2026-05-07 13:13 | 34.58163 | -92.39263 | 37108 ft | 565 kts | 55° |
| 2026-05-07 13:13 | 34.61959 | -92.30911 | 37099 ft | 566 kts | 57° |
| 2026-05-07 13:14 | 34.65742 | -92.22544 | 37109 ft | 567 kts | 56° |
| 2026-05-07 13:14 | 34.69535 | -92.14236 | 37107 ft | 566 kts | 55° |
| 2026-05-07 13:15 | 34.73473 | -92.05935 | 37105 ft | 566 kts | 54° |
| 2026-05-07 13:15 | 34.77392 | -91.97685 | 37107 ft | 566 kts | 54° |
| 2026-05-07 13:16 | 34.81302 | -91.89392 | 37105 ft | 567 kts | 54° |
| 2026-05-07 13:16 | 34.85218 | -91.81047 | 37096 ft | 566 kts | 54° |
| 2026-05-07 13:17 | 34.89116 | -91.72734 | 37098 ft | 568 kts | 54° |
| 2026-05-07 13:17 | 34.92997 | -91.64417 | 37099 ft | 567 kts | 54° |
| 2026-05-07 13:18 | 34.96895 | -91.56055 | 37100 ft | 567 kts | 54° |
| 2026-05-07 13:18 | 35.00776 | -91.47705 | 37098 ft | 567 kts | 55° |
| 2026-05-07 13:19 | 35.04644 | -91.39359 | 37096 ft | 566 kts | 54° |
| 2026-05-07 13:19 | 35.08512 | -91.31004 | 37093 ft | 568 kts | 55° |
| 2026-05-07 13:20 | 35.12373 | -91.22635 | 37096 ft | 568 kts | 55° |
| 2026-05-07 13:20 | 35.16257 | -91.14206 | 37096 ft | 569 kts | 56° |
| 2026-05-07 13:21 | 35.20129 | -91.05765 | 37097 ft | 570 kts | 55° |
| 2026-05-07 13:21 | 35.23976 | -90.97363 | 37097 ft | 569 kts | 55° |
| 2026-05-07 13:22 | 35.27850 | -90.88886 | 37097 ft | 569 kts | 55° |
| 2026-05-07 13:22 | 35.31698 | -90.80452 | 37094 ft | 571 kts | 55° |
| 2026-05-07 13:23 | 35.35531 | -90.72014 | 37088 ft | 570 kts | 55° |
| 2026-05-07 13:23 | 35.39393 | -90.63496 | 37087 ft | 571 kts | 55° |
| 2026-05-07 13:24 | 35.43235 | -90.55008 | 37086 ft | 572 kts | 55° |
| 2026-05-07 13:24 | 35.47074 | -90.46503 | 37086 ft | 572 kts | 55° |
| 2026-05-07 13:25 | 35.50897 | -90.38021 | 37083 ft | 573 kts | 55° |
| 2026-05-07 13:25 | 35.54742 | -90.29448 | 37079 ft | 573 kts | 56° |
| 2026-05-07 13:26 | 35.58591 | -90.20856 | 37085 ft | 573 kts | 56° |
| 2026-05-07 13:26 | 35.62409 | -90.12312 | 37081 ft | 573 kts | 56° |
| 2026-05-07 13:27 | 35.66220 | -90.03757 | 37080 ft | 573 kts | 56° |
| 2026-05-07 13:27 | 35.70041 | -89.95165 | 37084 ft | 574 kts | 56° |
| 2026-05-07 13:28 | 35.73875 | -89.86520 | 37083 ft | 575 kts | 56° |
| 2026-05-07 13:28 | 35.77670 | -89.77930 | 37085 ft | 575 kts | 56° |
| 2026-05-07 13:29 | 35.81466 | -89.69329 | 37082 ft | 574 kts | 56° |
| 2026-05-07 13:29 | 35.85263 | -89.60702 | 37080 ft | 575 kts | 56° |
| 2026-05-07 13:30 | 35.89066 | -89.52021 | 37077 ft | 574 kts | 56° |
| 2026-05-07 13:30 | 35.92851 | -89.43381 | 37073 ft | 575 kts | 56° |
| 2026-05-07 13:31 | 35.96608 | -89.34769 | 37069 ft | 574 kts | 56° |
| 2026-05-07 13:31 | 36.00389 | -89.26089 | 37067 ft | 574 kts | 56° |
| 2026-05-07 13:32 | 36.04167 | -89.17391 | 37064 ft | 575 kts | 56° |
| 2026-05-07 13:32 | 36.07931 | -89.08687 | 37060 ft | 575 kts | 56° |
| 2026-05-07 13:33 | 36.11686 | -88.99998 | 37056 ft | 575 kts | 56° |
| 2026-05-07 13:33 | 36.15347 | -88.91235 | 37051 ft | 576 kts | 58° |
| 2026-05-07 13:34 | 36.20581 | -88.77901 | 37054 ft | 577 kts | 58° |
| 2026-05-07 13:35 | 36.24084 | -88.68968 | 37053 ft | 577 kts | 59° |
| 2026-05-07 13:35 | 36.27593 | -88.60049 | 37054 ft | 578 kts | 59° |
| 2026-05-07 13:36 | 36.31090 | -88.51149 | 37056 ft | 578 kts | 59° |
| 2026-05-07 13:36 | 36.34605 | -88.42179 | 37059 ft | 579 kts | 59° |
| 2026-05-07 13:37 | 36.38114 | -88.33189 | 37060 ft | 579 kts | 60° |
| 2026-05-07 13:37 | 36.41610 | -88.24200 | 37064 ft | 578 kts | 59° |
| 2026-05-07 13:38 | 36.45100 | -88.15218 | 37061 ft | 579 kts | 59° |
| 2026-05-07 13:38 | 36.48572 | -88.06248 | 37060 ft | 579 kts | 59° |
| 2026-05-07 13:39 | 36.52044 | -87.97257 | 37061 ft | 579 kts | 59° |
| 2026-05-07 13:39 | 36.55498 | -87.88286 | 37060 ft | 580 kts | 60° |
| 2026-05-07 13:40 | 36.58987 | -87.79192 | 37060 ft | 581 kts | 59° |
| 2026-05-07 13:40 | 36.62442 | -87.70165 | 37062 ft | 581 kts | 60° |
| 2026-05-07 13:41 | 36.65898 | -87.61118 | 37061 ft | 582 kts | 60° |
| 2026-05-07 13:41 | 36.69350 | -87.52029 | 37064 ft | 581 kts | 59° |
| 2026-05-07 13:42 | 36.72783 | -87.42980 | 37061 ft | 581 kts | 59° |
| 2026-05-07 13:42 | 36.76230 | -87.33894 | 37057 ft | 581 kts | 60° |
| 2026-05-07 13:43 | 36.79678 | -87.24744 | 37057 ft | 582 kts | 60° |
| 2026-05-07 13:43 | 36.83123 | -87.15588 | 37053 ft | 583 kts | 60° |
| 2026-05-07 13:44 | 36.86567 | -87.06413 | 37049 ft | 585 kts | 59° |
| 2026-05-07 13:44 | 36.90057 | -86.97065 | 37047 ft | 583 kts | 60° |
| 2026-05-07 13:45 | 36.93545 | -86.87721 | 37056 ft | 584 kts | 60° |
| 2026-05-07 13:45 | 36.96977 | -86.78481 | 37057 ft | 585 kts | 60° |
| 2026-05-07 13:46 | 37.00440 | -86.69130 | 37052 ft | 584 kts | 60° |
| 2026-05-07 13:46 | 37.03907 | -86.59747 | 37055 ft | 585 kts | 60° |
| 2026-05-07 13:47 | 37.07342 | -86.50429 | 37050 ft | 584 kts | 60° |
| 2026-05-07 13:47 | 37.10774 | -86.41076 | 37045 ft | 583 kts | 60° |
| 2026-05-07 13:48 | 37.14198 | -86.31734 | 37041 ft | 583 kts | 60° |
| 2026-05-07 13:48 | 37.17605 | -86.22388 | 37046 ft | 584 kts | 60° |
| 2026-05-07 13:49 | 37.21015 | -86.13013 | 37038 ft | 583 kts | 61° |
| 2026-05-07 13:49 | 37.24814 | -86.03931 | 37038 ft | 575 kts | 51° |
| 2026-05-07 13:50 | 37.29335 | -85.95517 | 37034 ft | 572 kts | 47° |
| 2026-05-07 13:50 | 37.33940 | -85.87228 | 37032 ft | 572 kts | 47° |
| 2026-05-07 13:51 | 37.38523 | -85.78857 | 37032 ft | 572 kts | 47° |
| 2026-05-07 13:51 | 37.43053 | -85.70493 | 37032 ft | 573 kts | 47° |
| 2026-05-07 13:52 | 37.47590 | -85.62089 | 37035 ft | 572 kts | 48° |
| 2026-05-07 13:52 | 37.52084 | -85.53725 | 37033 ft | 571 kts | 47° |
| 2026-05-07 13:53 | 37.56611 | -85.45309 | 37034 ft | 573 kts | 48° |
| 2026-05-07 13:53 | 37.61108 | -85.36903 | 37034 ft | 572 kts | 48° |
| 2026-05-07 13:54 | 37.65620 | -85.28467 | 37032 ft | 574 kts | 49° |
| 2026-05-07 13:54 | 37.70140 | -85.19971 | 37039 ft | 573 kts | 49° |
| 2026-05-07 13:55 | 37.74659 | -85.11465 | 37043 ft | 573 kts | 49° |
| 2026-05-07 13:55 | 37.79136 | -85.03029 | 37044 ft | 573 kts | 49° |
| 2026-05-07 13:56 | 37.83649 | -84.94488 | 37038 ft | 573 kts | 48° |
| 2026-05-07 13:56 | 37.88122 | -84.86005 | 37029 ft | 573 kts | 49° |
| 2026-05-07 13:57 | 37.92612 | -84.77474 | 37044 ft | 574 kts | 48° |
| 2026-05-07 13:57 | 37.94823 | -84.73259 | 36864 ft | 573 kts | 49° |
| 2026-05-07 13:57 | 37.97073 | -84.68961 | 37119 ft | 574 kts | 48° |
| 2026-05-07 13:57 | 37.99284 | -84.64732 | 36949 ft | 572 kts | 48° |
| 2026-05-07 13:58 | 38.01538 | -84.60432 | 36991 ft | 574 kts | 48° |
| 2026-05-07 13:58 | 38.03733 | -84.56239 | 37135 ft | 574 kts | 48° |
| 2026-05-07 13:58 | 38.05954 | -84.51973 | 37127 ft | 573 kts | 48° |
| 2026-05-07 13:58 | 38.08179 | -84.47707 | 36983 ft | 573 kts | 49° |
| 2026-05-07 13:59 | 38.10416 | -84.43416 | 37173 ft | 575 kts | 49° |
| 2026-05-07 13:59 | 38.12627 | -84.39148 | 36958 ft | 573 kts | 48° |
| 2026-05-07 13:59 | 38.14864 | -84.34839 | 36976 ft | 574 kts | 49° |
| 2026-05-07 14:00 | 38.19302 | -84.26266 | 37009 ft | 573 kts | 50° |
| 2026-05-07 14:00 | 38.21516 | -84.21963 | 37137 ft | 576 kts | 50° |
| 2026-05-07 14:00 | 38.23703 | -84.17561 | 36974 ft | 575 kts | 52° |
| 2026-05-07 14:01 | 38.27976 | -84.08804 | 37007 ft | 574 kts | 52° |
| 2026-05-07 14:01 | 38.32222 | -84.00092 | 37013 ft | 574 kts | 51° |
| 2026-05-07 14:02 | 38.36508 | -83.91322 | 37010 ft | 573 kts | 52° |
| 2026-05-07 14:02 | 38.40739 | -83.82640 | 37015 ft | 573 kts | 52° |
| 2026-05-07 14:03 | 38.44989 | -83.73904 | 37020 ft | 572 kts | 52° |
| 2026-05-07 14:03 | 38.49229 | -83.65168 | 37024 ft | 573 kts | 52° |
| 2026-05-07 14:04 | 38.53481 | -83.56368 | 37017 ft | 573 kts | 52° |
| 2026-05-07 14:04 | 38.57705 | -83.47622 | 37015 ft | 574 kts | 51° |
| 2026-05-07 14:05 | 38.61950 | -83.38790 | 37007 ft | 573 kts | 51° |
| 2026-05-07 14:05 | 38.66142 | -83.30054 | 37007 ft | 572 kts | 52° |
| 2026-05-07 14:06 | 38.70372 | -83.21211 | 37002 ft | 573 kts | 52° |
| 2026-05-07 14:06 | 38.74558 | -83.12437 | 36994 ft | 572 kts | 52° |
| 2026-05-07 14:07 | 38.78705 | -83.03708 | 36999 ft | 571 kts | 52° |
| 2026-05-07 14:07 | 38.82818 | -82.95046 | 37005 ft | 571 kts | 52° |
| 2026-05-07 14:08 | 38.86957 | -82.86299 | 37003 ft | 571 kts | 52° |
| 2026-05-07 14:08 | 38.91053 | -82.77625 | 36995 ft | 571 kts | 52° |
| 2026-05-07 14:09 | 38.95164 | -82.68892 | 36994 ft | 572 kts | 52° |
| 2026-05-07 14:09 | 38.99235 | -82.60200 | 36988 ft | 571 kts | 53° |
| 2026-05-07 14:10 | 39.03312 | -82.51484 | 36986 ft | 570 kts | 52° |
| 2026-05-07 14:10 | 39.07404 | -82.42718 | 36974 ft | 569 kts | 52° |
| 2026-05-07 14:11 | 39.11462 | -82.34012 | 36978 ft | 569 kts | 52° |
| 2026-05-07 14:11 | 39.15509 | -82.25299 | 36989 ft | 570 kts | 53° |
| 2026-05-07 14:12 | 39.19572 | -82.16531 | 36981 ft | 571 kts | 54° |
| 2026-05-07 14:12 | 39.23640 | -82.07698 | 36977 ft | 569 kts | 53° |
| 2026-05-07 14:12 | 39.25648 | -82.03329 | 36966 ft | 558 kts | 53° |
| 2026-05-07 14:13 | 39.27587 | -81.99099 | 36978 ft | 549 kts | 53° |
| 2026-05-07 14:13 | 39.31530 | -81.90527 | 36969 ft | 550 kts | 52° |
| 2026-05-07 14:13 | 39.33464 | -81.86314 | 36564 ft | 548 kts | 53° |
| 2026-05-07 14:14 | 39.35385 | -81.82072 | 35520 ft | 551 kts | 56° |
| 2026-05-07 14:14 | 39.37169 | -81.77601 | 34447 ft | 558 kts | 61° |
| 2026-05-07 14:14 | 39.38688 | -81.72951 | 33395 ft | 568 kts | 68° |
| 2026-05-07 14:14 | 39.39906 | -81.68100 | 32658 ft | 571 kts | 75° |
| 2026-05-07 14:15 | 39.40801 | -81.63133 | 32452 ft | 559 kts | 80° |
| 2026-05-07 14:15 | 39.41449 | -81.58263 | 32283 ft | 548 kts | 83° |
| 2026-05-07 14:15 | 39.42038 | -81.53370 | 32086 ft | 538 kts | 84° |
| 2026-05-07 14:15 | 39.42630 | -81.48576 | 31779 ft | 532 kts | 82° |
| 2026-05-07 14:16 | 39.43243 | -81.43845 | 31383 ft | 529 kts | 82° |
| 2026-05-07 14:16 | 39.44121 | -81.39246 | 30958 ft | 526 kts | 65° |
| 2026-05-07 14:16 | 39.45972 | -81.35193 | 30522 ft | 506 kts | 40° |
| 2026-05-07 14:16 | 39.48509 | -81.32228 | 30106 ft | 479 kts | 22° |
| 2026-05-07 14:17 | 39.51310 | -81.29936 | 29635 ft | 469 kts | 18° |
| 2026-05-07 14:17 | 39.54131 | -81.27676 | 29170 ft | 470 kts | 20° |
| 2026-05-07 14:17 | 39.56868 | -81.25247 | 28802 ft | 470 kts | 24° |
| 2026-05-07 14:17 | 39.59426 | -81.22837 | 28427 ft | 467 kts | 25° |
| 2026-05-07 14:18 | 39.62136 | -81.20220 | 27944 ft | 462 kts | 26° |
| 2026-05-07 14:18 | 39.64770 | -81.17666 | 27448 ft | 479 kts | 26° |
| 2026-05-07 14:18 | 39.67511 | -81.15025 | 26927 ft | 491 kts | 27° |
| 2026-05-07 14:18 | 39.70229 | -81.12382 | 26385 ft | 489 kts | 27° |
| 2026-05-07 14:19 | 39.72925 | -81.09758 | 25880 ft | 483 kts | 28° |
| 2026-05-07 14:19 | 39.75636 | -81.07124 | 25336 ft | 478 kts | 28° |
| 2026-05-07 14:19 | 39.78248 | -81.04574 | 24814 ft | 470 kts | 28° |
| 2026-05-07 14:19 | 39.80866 | -81.02032 | 24283 ft | 467 kts | 29° |
| 2026-05-07 14:20 | 39.83440 | -80.99536 | 23784 ft | 465 kts | 29° |
| 2026-05-07 14:20 | 39.85186 | -80.97842 | 23432 ft | 463 kts | 29° |
| 2026-05-07 14:20 | 39.88615 | -80.94499 | 22711 ft | 460 kts | 29° |
| 2026-05-07 14:20 | 39.91157 | -80.92020 | 22177 ft | 458 kts | 29° |
| 2026-05-07 14:21 | 39.93700 | -80.89538 | 21644 ft | 455 kts | 29° |
| 2026-05-07 14:21 | 39.96232 | -80.87065 | 21100 ft | 453 kts | 29° |
| 2026-05-07 14:21 | 39.98716 | -80.84637 | 20565 ft | 450 kts | 30° |
| 2026-05-07 14:21 | 40.01203 | -80.82154 | 20013 ft | 449 kts | 32° |
| 2026-05-07 14:22 | 40.03579 | -80.79429 | 19470 ft | 449 kts | 36° |
| 2026-05-07 14:22 | 40.05866 | -80.76567 | 18910 ft | 447 kts | 38° |
| 2026-05-07 14:22 | 40.08122 | -80.73687 | 18360 ft | 444 kts | 38° |
| 2026-05-07 14:22 | 40.10365 | -80.70827 | 17812 ft | 441 kts | 38° |
| 2026-05-07 14:23 | 40.12573 | -80.68032 | 17282 ft | 437 kts | 38° |
| 2026-05-07 14:23 | 40.14711 | -80.65250 | 16999 ft | 427 kts | 40° |
| 2026-05-07 14:23 | 40.16785 | -80.62447 | 16980 ft | 409 kts | 40° |
| 2026-05-07 14:23 | 40.18731 | -80.59801 | 16827 ft | 398 kts | 40° |
| 2026-05-07 14:24 | 40.20640 | -80.57228 | 16464 ft | 392 kts | 40° |
| 2026-05-07 14:24 | 40.22517 | -80.54717 | 16124 ft | 387 kts | 39° |
| 2026-05-07 14:24 | 40.24400 | -80.52202 | 15773 ft | 381 kts | 40° |
| 2026-05-07 14:24 | 40.26170 | -80.49644 | 15429 ft | 380 kts | 47° |
| 2026-05-07 14:25 | 40.27639 | -80.46784 | 15095 ft | 378 kts | 57° |
| 2026-05-07 14:25 | 40.28864 | -80.43792 | 14767 ft | 374 kts | 60° |
| 2026-05-07 14:25 | 40.30026 | -80.40758 | 14444 ft | 369 kts | 60° |
| 2026-05-07 14:25 | 40.31165 | -80.37767 | 14121 ft | 364 kts | 60° |
| 2026-05-07 14:26 | 40.32298 | -80.34843 | 13799 ft | 358 kts | 60° |
| 2026-05-07 14:26 | 40.33429 | -80.31929 | 13462 ft | 354 kts | 64° |
| 2026-05-07 14:26 | 40.34153 | -80.28893 | 13130 ft | 351 kts | 79° |
| 2026-05-07 14:26 | 40.34335 | -80.25732 | 12804 ft | 345 kts | 91° |
| 2026-05-07 14:27 | 40.34283 | -80.22611 | 12482 ft | 340 kts | 93° |
| 2026-05-07 14:27 | 40.34053 | -80.19566 | 12138 ft | 333 kts | 108° |
| 2026-05-07 14:27 | 40.33064 | -80.16866 | 11803 ft | 319 kts | 133° |
| 2026-05-07 14:27 | 40.31572 | -80.14844 | 11577 ft | 305 kts | 143° |
| 2026-05-07 14:28 | 40.29993 | -80.12976 | 11251 ft | 301 kts | 144° |
| 2026-05-07 14:28 | 40.28449 | -80.11145 | 10888 ft | 300 kts | 143° |
| 2026-05-07 14:28 | 40.27040 | -80.09088 | 10474 ft | 306 kts | 126° |
| 2026-05-07 14:28 | 40.25954 | -80.06691 | 10125 ft | 303 kts | 130° |
| 2026-05-07 14:29 | 40.24448 | -80.04884 | 9723 ft | 289 kts | 157° |
| 2026-05-07 14:29 | 40.22566 | -80.04160 | 9344 ft | 273 kts | 185° |
| 2026-05-07 14:29 | 40.20746 | -80.04638 | 8936 ft | 257 kts | 212° |
| 2026-05-07 14:29 | 40.19426 | -80.06121 | 8508 ft | 247 kts | 240° |
| 2026-05-07 14:30 | 40.18883 | -80.08205 | 8060 ft | 244 kts | 268° |
| 2026-05-07 14:30 | 40.19243 | -80.10363 | 7599 ft | 246 kts | 297° |
| 2026-05-07 14:30 | 40.20399 | -80.11982 | 7181 ft | 252 kts | 326° |
| 2026-05-07 14:30 | 40.22087 | -80.12662 | 6759 ft | 259 kts | 355° |
| 2026-05-07 14:31 | 40.23838 | -80.12183 | 6384 ft | 264 kts | 22° |
| 2026-05-07 14:31 | 40.25441 | -80.10973 | 6208 ft | 257 kts | 30° |
| 2026-05-07 14:31 | 40.26952 | -80.09680 | 5937 ft | 254 kts | 31° |
| 2026-05-07 14:31 | 40.28410 | -80.08412 | 5622 ft | 252 kts | 31° |
| 2026-05-07 14:32 | 40.29804 | -80.07027 | 5291 ft | 253 kts | 46° |
| 2026-05-07 14:32 | 40.30643 | -80.04986 | 4928 ft | 256 kts | 73° |
| 2026-05-07 14:32 | 40.31000 | -80.02679 | 4609 ft | 254 kts | 79° |
| 2026-05-07 14:32 | 40.31264 | -80.00354 | 4265 ft | 253 kts | 81° |
| 2026-05-07 14:33 | 40.31583 | -79.98117 | 3921 ft | 250 kts | 68° |
| 2026-05-07 14:33 | 40.32539 | -79.96281 | 3557 ft | 244 kts | 36° |
| 2026-05-07 14:33 | 40.34042 | -79.95364 | 3204 ft | 237 kts | 8° |
| 2026-05-07 14:33 | 40.35667 | -79.95104 | 2996 ft | 235 kts | 2° |
| 2026-05-07 14:34 | 40.37306 | -79.94965 | 2985 ft | 234 kts | 1° |
| 2026-05-07 14:34 | 40.38874 | -79.94846 | 2966 ft | 218 kts | 1° |
| 2026-05-07 14:34 | 40.40329 | -79.94730 | 3012 ft | 199 kts | 0° |
| 2026-05-07 14:34 | 40.41706 | -79.94614 | 3032 ft | 196 kts | 0° |
| 2026-05-07 14:35 | 40.43071 | -79.94500 | 2997 ft | 195 kts | 0° |
| 2026-05-07 14:35 | 40.44419 | -79.94392 | 2988 ft | 195 kts | 1° |
| 2026-05-07 14:35 | 40.45770 | -79.94496 | 2990 ft | 191 kts | 340° |
| 2026-05-07 14:35 | 40.46768 | -79.95598 | 3009 ft | 188 kts | 307° |
| 2026-05-07 14:36 | 40.47471 | -79.96986 | 2975 ft | 173 kts | 299° |
| 2026-05-07 14:36 | 40.47954 | -79.98350 | 2934 ft | 151 kts | 290° |
| 2026-05-07 14:36 | 40.48234 | -79.99633 | 2941 ft | 143 kts | 282° |
| 2026-05-07 14:36 | 40.48365 | -80.00909 | 2955 ft | 139 kts | 274° |
| 2026-05-07 14:37 | 40.48399 | -80.02166 | 2972 ft | 138 kts | 272° |
| 2026-05-07 14:37 | 40.48457 | -80.04696 | 2975 ft | 138 kts | 272° |
| 2026-05-07 14:37 | 40.48488 | -80.05952 | 2977 ft | 138 kts | 272° |
| 2026-05-07 14:38 | 40.48511 | -80.07212 | 2958 ft | 138 kts | 272° |
| 2026-05-07 14:38 | 40.48539 | -80.08494 | 2881 ft | 138 kts | 272° |
| 2026-05-07 14:38 | 40.48569 | -80.09749 | 2758 ft | 138 kts | 273° |
| 2026-05-07 14:38 | 40.48610 | -80.11020 | 2587 ft | 137 kts | 273° |
| 2026-05-07 14:39 | 40.48653 | -80.12282 | 2401 ft | 137 kts | 273° |
| 2026-05-07 14:39 | 40.48690 | -80.13535 | 2235 ft | 137 kts | 272° |
| 2026-05-07 14:39 | 40.48721 | -80.14780 | 2066 ft | 136 kts | 272° |
| 2026-05-07 14:39 | 40.48752 | -80.16024 | 1879 ft | 136 kts | 272° |
| 2026-05-07 14:40 | 40.48784 | -80.17266 | 1690 ft | 136 kts | 271° |
| 2026-05-07 14:40 | 40.48814 | -80.18516 | 1515 ft | 136 kts | 271° |
| 2026-05-07 14:40 | 40.48850 | -80.19765 | 1350 ft | 136 kts | 272° |
| 2026-05-07 14:40 | 40.48887 | -80.20998 | 1166 ft | 135 kts | 272° |
| 2026-05-07 14:41 | 40.48918 | -80.22292 | 1277 ft | 155 kts | 268° |
| 2026-05-07 14:41 | 40.48935 | -80.23806 | 1889 ft | 174 kts | 268° |
| 2026-05-07 14:41 | 40.48930 | -80.25401 | 2578 ft | 181 kts | 268° |
| 2026-05-07 14:41 | 40.48890 | -80.27181 | 2943 ft | 202 kts | 268° |
| 2026-05-07 14:42 | 40.48825 | -80.29089 | 2903 ft | 213 kts | 268° |
| 2026-05-07 14:42 | 40.48752 | -80.31049 | 2911 ft | 214 kts | 268° |
| 2026-05-07 14:42 | 40.48677 | -80.33028 | 2954 ft | 215 kts | 268° |
| 2026-05-07 14:42 | 40.48602 | -80.35002 | 2969 ft | 215 kts | 268° |
| 2026-05-07 14:43 | 40.48468 | -80.36961 | 2970 ft | 216 kts | 260° |
| 2026-05-07 14:43 | 40.48072 | -80.38883 | 2971 ft | 217 kts | 246° |
| 2026-05-07 14:43 | 40.47105 | -80.40404 | 2980 ft | 220 kts | 220° |
| 2026-05-07 14:43 | 40.45798 | -80.41441 | 2966 ft | 223 kts | 198° |
| 2026-05-07 14:44 | 40.44247 | -80.41370 | 2970 ft | 228 kts | 161° |
| 2026-05-07 14:44 | 40.42945 | -80.40153 | 2975 ft | 232 kts | 127° |
| 2026-05-07 14:44 | 40.42157 | -80.38245 | 2992 ft | 233 kts | 114° |
| 2026-05-07 14:44 | 40.41539 | -80.36254 | 2983 ft | 233 kts | 111° |
| 2026-05-07 14:45 | 40.40990 | -80.34213 | 2973 ft | 234 kts | 102° |
| 2026-05-07 14:45 | 40.40836 | -80.32804 | 2978 ft | 234 kts | 94° |
| 2026-05-07 14:45 | 40.40720 | -80.29940 | 2976 ft | 234 kts | 91° |
| 2026-05-07 14:45 | 40.40666 | -80.27821 | 2976 ft | 233 kts | 91° |
| 2026-05-07 14:46 | 40.40615 | -80.25737 | 2962 ft | 222 kts | 91° |
| 2026-05-07 14:46 | 40.40568 | -80.23796 | 2948 ft | 208 kts | 91° |
| 2026-05-07 14:46 | 40.40521 | -80.21892 | 2964 ft | 207 kts | 91° |
| 2026-05-07 14:46 | 40.40475 | -80.20030 | 2970 ft | 206 kts | 91° |
| 2026-05-07 14:47 | 40.40430 | -80.18102 | 2975 ft | 206 kts | 91° |
| 2026-05-07 14:47 | 40.40386 | -80.16179 | 2974 ft | 206 kts | 91° |
| 2026-05-07 14:47 | 40.40351 | -80.14319 | 2974 ft | 206 kts | 87° |
| 2026-05-07 14:47 | 40.40678 | -80.12508 | 3066 ft | 203 kts | 65° |
| 2026-05-07 14:48 | 40.41150 | -80.11455 | 3061 ft | 197 kts | 47° |
| 2026-05-07 14:48 | 40.42655 | -80.10186 | 2546 ft | 196 kts | 22° |
| 2026-05-07 14:48 | 40.43897 | -80.09458 | 2163 ft | 196 kts | 21° |
| 2026-05-07 14:48 | 40.45173 | -80.08800 | 2080 ft | 197 kts | 13° |
| 2026-05-07 14:49 | 40.46521 | -80.08541 | 2117 ft | 193 kts | 2° |
| 2026-05-07 14:49 | 40.47796 | -80.08484 | 2051 ft | 168 kts | 350° |
| 2026-05-07 14:49 | 40.48644 | -80.09234 | 1980 ft | 141 kts | 291° |
| 2026-05-07 14:49 | 40.48746 | -80.10466 | 2047 ft | 137 kts | 267° |
| 2026-05-07 14:50 | 40.48719 | -80.11712 | 2037 ft | 136 kts | 268° |
| 2026-05-07 14:50 | 40.48700 | -80.12965 | 2024 ft | 136 kts | 269° |
| 2026-05-07 14:50 | 40.48710 | -80.14195 | 1991 ft | 136 kts | 270° |
| 2026-05-07 14:50 | 40.48729 | -80.15455 | 1982 ft | 136 kts | 270° |
| 2026-05-07 14:51 | 40.48762 | -80.16687 | 1776 ft | 137 kts | 271° |
| 2026-05-07 14:51 | 40.48815 | -80.17933 | 1592 ft | 135 kts | 271° |
| 2026-05-07 14:51 | 40.48843 | -80.19176 | 1409 ft | 136 kts | 270° |
| 2026-05-07 14:51 | 40.48871 | -80.20432 | 1243 ft | 137 kts | 271° |
| 2026-05-07 14:52 | 40.48907 | -80.21661 | 1147 ft | 135 kts | 271° |
| 2026-05-07 14:52 | 40.48938 | -80.22763 | 1129 ft | 97 kts | 272° |
| 2026-05-07 14:52 | 40.48965 | -80.23315 | 1135 ft | 21 kts | 285° |
| 2026-05-07 14:52 | 40.49001 | -80.23435 | 1138 ft | 8 kts | 299° |
| 2026-05-07 14:53 | 40.49025 | -80.23490 | 1139 ft | 5 kts | 301° |
| 2026-05-07 14:53 | 40.49026 | -80.23492 | 1139 ft | 0 kts | 301° |
| 2026-05-07 14:53 | 40.49027 | -80.23493 | 1139 ft | 0 kts | 301° |
| 2026-05-07 14:54 | 40.49036 | -80.23514 | 1139 ft | 7 kts | 299° |
| 2026-05-07 14:54 | 40.49056 | -80.23621 | 1141 ft | 15 kts | 276° |
| 2026-05-07 14:54 | 40.49061 | -80.23755 | 1143 ft | 14 kts | 272° |
| 2026-05-07 14:54 | 40.49066 | -80.23878 | 1144 ft | 12 kts | 273° |
| 2026-05-07 14:55 | 40.49083 | -80.23978 | 1145 ft | 10 kts | 325° |
| 2026-05-07 14:55 | 40.49150 | -80.23992 | 1147 ft | 8 kts | 0° |
| 2026-05-07 14:55 | 40.49197 | -80.24006 | 1148 ft | 5 kts | 310° |
| 2026-05-07 14:55 | 40.49205 | -80.24054 | 1148 ft | 5 kts | 276° |
| 2026-05-07 14:56 | 40.49208 | -80.24102 | 1148 ft | 6 kts | 273° |
| 2026-05-07 14:56 | 40.49219 | -80.24160 | 1148 ft | 6 kts | 313° |
| 2026-05-07 14:56 | 40.49258 | -80.24176 | 1149 ft | 4 kts | 356° |
| 2026-05-07 14:56 | 40.49273 | -80.24177 | 1150 ft | 0 kts | 0° |
| 2026-05-07 14:57 | 40.49274 | -80.24177 | 1150 ft | 0 kts | 0° |